Flight Track Log - Related Links

Times and Time Zones

All times are in EDT time to prevent confusion due to time zone crossing. See the SWA3675 flight status page for this flight to view local times or setup timezone preferences in your user account.


Time Position Orientation Groundspeed Altitude Reporting Facility
EDT Latitude Longitude Course Direction KTS MPH feet Rate Location/Type
Thu 05:55:31 PM 42.7297 -73.8081 180° South 148 170 1,300  Level Boston Center
Thu 05:56:20 PM 42.6942 -73.8186 192° South 184 212 2,800 2,250 Climbing Boston Center
Thu 05:56:51 PM 42.7000 -73.8583 281° West 217 250 4,300 2,901 Climbing Boston Center
Thu 05:57:51 PM 42.7453 -73.9131 318° Northwest 210 242 7,200 2,700 Climbing Boston Center
Thu 05:58:51 PM 42.7864 -73.9564 322° Northwest 220 253 9,700 3,000 Climbing Boston Center
Thu 05:59:51 PM 42.8436 -74.0231 320° Northwest 236 272 13,200 3,700 Climbing Boston Center
Thu 06:00:00 PM 42.2695 -74.2087 180° South  Level Estimated
Thu 06:00:51 PM 42.9011 -74.0897 320° Northwest 248 285 17,100  Level Boston Center
Thu 06:01:51 PM 42.8997 -74.1775 269° West 260 299 19,600 2,600 Climbing Boston Center
Thu 06:02:51 PM 42.8228 -74.1725 177° South 164 189 22,300 2,100 Climbing Boston Center
Thu 06:03:51 PM 42.7400 -74.1278 158° South 217 250 23,800 1,250 Climbing Boston Center
Thu 06:04:51 PM 42.6408 -74.0714 157° South 281 323 24,800 2,050 Climbing Boston Center
Thu 06:05:51 PM 42.5311 -74.0122 158° South 362 417 27,900 1,600 Climbing Boston Center
Thu 06:06:51 PM 42.4319 -73.9592 158° South 377 434 28,000 50 Climbing Boston Center
Thu 06:07:51 PM 42.3306 -73.9033 158° South 388 447 28,000  Level Boston Center
Thu 06:08:51 PM 42.2311 -73.8506 159° South 388 447 28,000  Level Boston Center
Thu 06:09:51 PM 42.1272 -73.8258 170° South 376 433 28,000  Level Boston Center
Thu 06:10:51 PM 42.0244 -73.8711 198° South 369 425 28,000  Level Boston Center
Thu 06:12:54 PM 41.8119 -73.9603 197° South 387 445 28,000  Level New York Center
Thu 06:13:55 PM 41.7044 -74.0081 198° South 392 451 28,000 403 Level New York Center
Thu 06:14:53 PM 41.5950 -74.0525 197° South 409 471 28,800 1,450 Climbing New York Center
Thu 06:15:55 PM 41.4894 -74.1028 200° South 409 471 30,900 1,082 Climbing New York Center
Thu 06:16:55 PM 41.3736 -74.1522 198° South 415 478 31,000 51 Climbing New York Center
Thu 06:17:53 PM 41.2533 -74.2042 198° South 438 504 31,000  Level New York Center
Thu 06:18:53 PM 41.1311 -74.2531 197° South 454 522 31,000 -149 Level New York Center
Thu 06:19:54 PM 41.0108 -74.3017 197° South 454 522 30,700 -1,438 Descending New York Center
Thu 06:20:54 PM 40.8969 -74.3508 198° South 448 516 28,100 -2,350 Descending New York Center
Thu 06:21:54 PM 40.7908 -74.4164 205° Southwest 439 505 26,000 -1,041 Descending New York Center
Thu 06:22:55 PM 40.7267 -74.5336 234° Southwest 399 459 26,000 -203 Level New York Center
Thu 06:23:52 PM 40.6664 -74.6561 237° Southwest 398 458 25,600 -712 Descending New York Center
Thu 06:24:53 PM 40.6064 -74.7728 236° Southwest 398 458 24,600 -992 Descending New York Center
Thu 06:25:53 PM 40.5542 -74.8928 240° Southwest 385 443 23,600 -942 Descending New York Center
Thu 06:26:54 PM 40.5039 -75.0181 242° Southwest 385 443 22,700 -934 Descending New York Center
Thu 06:27:55 PM 40.4375 -75.1231 230° Southwest 385 443 21,700 -1,008 Descending New York Center
Thu 06:28:53 PM 40.3633 -75.2164 224° Southwest 385 443 20,700 -1,000 Descending New York Center
Thu 06:29:55 PM 40.2808 -75.3036 219° Southwest 380 437 19,700 -934 Descending New York Center
Thu 06:30:55 PM 40.1961 -75.3878 217° Southwest 385 443 18,800 -872 Descending New York Center
Thu 06:31:52 PM 40.1244 -75.4617 218° Southwest 385 443 18,000 -407 Descending New York Center
Thu 06:32:53 PM 40.0375 -75.5508 218° Southwest 380 437 18,000 -496 Level New York Center
Thu 06:33:53 PM 39.9569 -75.6319 218° Southwest 375 432 17,000 -942 Descending New York Center
Thu 06:34:54 PM 39.8908 -75.7219 226° Southwest 363 418 16,100 -984 Descending New York Center
Thu 06:35:55 PM 39.8408 -75.8186 236° Southwest 339 390 15,000 -555 Descending New York Center
Thu 06:36:53 PM 39.7931 -75.9097 236° Southwest 322 371 15,000 -407 Level New York Center
Thu 06:37:53 PM 39.7475 -75.9983 236° Southwest 307 353 14,200 -1,161 Descending New York Center
Thu 06:39:28 PM 39.6667 -76.1333 232° Southwest 295 339 12,000 -926 Descending Potomac TRACON
Thu 06:40:22 PM 39.6000 -76.1833 210° Southwest 294 338 11,900 -684 Descending Potomac TRACON
Thu 06:41:22 PM 39.5333 -76.2333 210° Southwest 297 342 10,700 -1,150 Descending Potomac TRACON
Thu 06:42:22 PM 39.4500 -76.2667 197° South 282 325 9,600 -1,048 Descending Potomac TRACON
Thu 06:43:28 PM 39.3833 -76.3167 210° Southwest 267 307 8,500 -992 Descending Potomac TRACON
Thu 06:44:29 PM 39.3167 -76.3500 201° Southwest 256 295 7,500 -1,289 Descending Potomac TRACON
Thu 06:45:29 PM 39.2667 -76.4167 226° Southwest 261 300 5,900 -1,550 Descending Potomac TRACON
Thu 06:46:29 PM 39.2167 -76.4833 226° Southwest 261 300 4,400 -1,450 Descending Potomac TRACON
Thu 06:47:29 PM 39.1667 -76.5500 226° Southwest 253 291 3,000 -1,300 Descending Potomac TRACON
Thu 06:48:29 PM 39.1167 -76.6000 218° Southwest 200 230 1,800 -1,100 Descending Potomac TRACON
Thu 06:49:29 PM 39.1333 -76.6333 303° West 144 166 800 -1,000 Descending Potomac TRACON

Login

Don't have an account? Register now (free) for customized features, flight alerts, and more!